Terminal Aerodrome Forecast
Issued by NWS

Home | Current Version | Previous Version | Text Only | Print | Product List | Glossary On
Versions: 1 2 3 4 5 6 7 8 9 10 11 12 13 14 15 16 17 18
000
FTUS43 KGRB 221018 AAA
TAFMTW
TAF AMD
KMTW 221018Z 2210/2306 13004KT 1SM BR SCT003
      TEMPO 2210/2214 1/4SM FG BKN003
     FM221400 19007KT 2SM BR FEW002
     FM221500 19008KT 5SM BR FEW250
     FM221600 18010G17KT P6SM FEW250
     FM230000 19006KT P6SM SKC=

USA.gov is the U.S. government's official web portal to all federal, state and local government web resources and services.